Time;durP1;ratioP1;P1;durP2;ratioP2;P2;SDS_P1;SDS_P2;PMS_P1;PMS_P2;Temp;Humidity;BMP_temperature;BMP_pressure;BME280_temperature;BME280_humidity;BME280_pressure;Samples;Min_cycle;Max_cycle;Signal;HPM_P1;HPM_P2
2023/06/19 00:01:47;;;;;;;11.27;6.18;;;21.60;99.90;;;21.07;100.00;97194.63;5040423;28;20665;-74
2023/06/19 00:04:14;;;;;;;8.77;6.15;;;21.60;99.90;;;21.06;100.00;97183.22;5040393;28;20505;-74
2023/06/19 00:06:42;;;;;;;6.68;5.97;;;21.70;99.90;;;21.08;100.00;97181.28;5042534;28;20080;-73
2023/06/19 00:09:09;;;;;;;8.90;5.95;;;21.70;99.90;;;21.09;100.00;97184.75;5040658;28;20049;-73
2023/06/19 00:11:36;;;;;;;7.38;5.55;;;21.70;99.90;;;21.01;100.00;97182.84;5040828;28;20053;-74
2023/06/19 00:14:03;;;;;;;9.05;5.72;;;21.70;99.90;;;21.13;100.00;97185.31;5039809;28;20476;-75
2023/06/19 00:16:31;;;;;;;6.60;5.28;;;21.60;99.90;;;21.13;100.00;97201.97;5042307;28;20098;-75
2023/06/19 00:18:59;;;;;;;6.32;5.20;;;21.50;99.90;;;20.83;100.00;97226.72;5040911;28;20070;-74
2023/06/19 00:21:26;;;;;;;7.43;6.00;;;21.30;99.90;;;20.28;100.00;97232.41;5041214;28;20114;-72
2023/06/19 00:23:54;;;;;;;12.32;6.40;;;21.10;99.90;;;20.02;100.00;97226.75;5041610;28;20048;-73
2023/06/19 00:26:25;;;;;;;8.00;6.97;;;;;;;19.88;100.00;97232.41;5040282;28;20064;-73
2023/06/19 00:28:52;;;;;;;9.00;6.85;;;20.80;99.90;;;19.74;100.00;97236.22;5023925;28;20110;-73
2023/06/19 00:31:19;;;;;;;7.93;7.13;;;20.60;99.90;;;19.67;100.00;97238.50;5040657;28;20084;-73
2023/06/19 00:33:49;;;;;;;9.38;7.10;;;20.50;99.90;;;19.52;100.00;97247.69;5039681;28;20114;-74
2023/06/19 00:36:20;;;;;;;10.02;6.60;;;20.40;99.90;;;19.48;100.00;97247.13;5038764;28;20049;-73
2023/06/19 00:38:50;;;;;;;9.35;7.47;;;20.30;99.90;;;19.41;100.00;97259.16;5023077;28;20054;-73
2023/06/19 00:41:18;;;;;;;9.38;6.90;;;20.20;99.90;;;19.35;100.00;97265.75;5041311;28;20056;-73
2023/06/19 00:43:45;;;;;;;11.43;7.35;;;20.10;99.90;;;19.30;100.00;97280.25;5040528;28;20059;-73
2023/06/19 00:46:12;;;;;;;10.32;8.18;;;20.00;99.90;;;19.24;100.00;97289.47;5040496;28;20163;-73
2023/06/19 00:48:40;;;;;;;9.43;7.40;;;19.90;99.90;;;19.15;100.00;97306.00;5041183;28;20131;-76
2023/06/19 00:51:08;;;;;;;10.68;7.32;;;19.80;99.90;;;19.01;100.00;97304.50;5023507;28;20053;-74
2023/06/19 00:53:35;;;;;;;9.57;7.13;;;19.70;99.90;;;18.95;100.00;97307.63;5038589;28;20052;-73
2023/06/19 00:56:04;;;;;;;14.25;7.25;;;19.60;99.90;;;18.90;100.00;97320.31;5039962;28;20090;-73
2023/06/19 00:58:31;;;;;;;9.27;6.80;;;19.60;99.90;;;18.89;100.00;97313.41;5054725;28;20114;-73
2023/06/19 01:00:58;;;;;;;12.68;6.90;;;19.60;99.90;;;18.84;100.00;97319.03;5024393;28;20102;-73
2023/06/19 01:03:36;;;;;;;6.95;6.22;;;19.60;99.90;;;18.83;100.00;97321.78;5038999;28;20159;-73
2023/06/19 01:06:10;;;;;;;12.63;6.15;;;19.60;99.90;;;18.94;100.00;97319.13;5041760;28;20053;-73
2023/06/19 01:08:53;;;;;;;6.53;4.93;;;19.60;99.90;;;18.95;100.00;97312.88;5043342;28;20148;-73
2023/06/19 01:11:26;;;;;;;5.28;4.45;;;19.70;99.90;;;18.98;100.00;97287.19;5038572;28;20049;-73
2023/06/19 01:13:59;;;;;;;10.73;5.20;;;19.70;99.90;;;18.91;100.00;97288.66;5040729;28;20053;-73
2023/06/19 01:16:29;;;;;;;6.53;4.60;;;19.70;99.90;;;18.91;100.00;97286.03;5026349;28;20049;-73
2023/06/19 01:18:57;;;;;;;6.30;3.80;;;19.70;99.90;;;18.94;100.00;97283.13;5025607;28;20460;-73
2023/06/19 01:21:24;;;;;;;4.03;3.55;;;19.60;99.90;;;18.95;100.00;97279.56;5037173;28;20131;-73
2023/06/19 01:23:52;;;;;;;7.10;3.90;;;19.50;99.90;;;19.00;100.00;97272.13;5040753;28;20057;-73
2023/06/19 01:26:26;;;;;;;5.82;3.50;;;19.50;99.90;;;18.85;100.00;97275.16;5020044;28;20045;-73
2023/06/19 01:28:55;;;;;;;4.20;3.65;;;19.50;99.90;;;18.90;100.00;97268.56;5023837;28;20224;-72
2023/06/19 01:31:33;;;;;;;4.20;3.25;;;19.40;99.90;;;18.96;100.00;97281.22;5038296;28;20132;-73
2023/06/19 01:34:03;;;;;;;4.32;2.90;;;19.40;99.90;;;18.88;100.00;97286.25;5037783;28;20067;-73
2023/06/19 01:36:31;;;;;;;4.82;3.13;;;19.40;99.90;;;18.89;100.00;97287.94;5019617;28;20127;-73
2023/06/19 01:38:59;;;;;;;4.40;2.70;;;19.50;99.90;;;18.92;100.00;97290.31;5041079;28;20041;-73
2023/06/19 01:41:29;;;;;;;4.00;2.78;;;19.40;99.90;;;18.84;100.00;97291.88;5039389;28;20125;-73
2023/06/19 01:43:57;;;;;;;3.92;2.58;;;19.40;99.90;;;18.80;100.00;97286.88;5037593;28;20135;-73
2023/06/19 01:46:24;;;;;;;3.70;2.45;;;19.40;99.90;;;18.77;100.00;97295.03;5038225;28;20049;-73
2023/06/19 01:48:52;;;;;;;6.47;2.58;;;19.40;99.90;;;18.77;100.00;97299.44;5038944;28;20045;-73
2023/06/19 01:51:20;;;;;;;4.45;2.78;;;19.30;99.90;;;18.73;100.00;97303.25;5037976;28;20063;-73
2023/06/19 01:53:47;;;;;;;4.93;2.60;;;19.30;99.90;;;18.69;100.00;97304.44;5039740;28;20136;-74
2023/06/19 01:56:14;;;;;;;3.10;2.47;;;19.30;99.90;;;18.69;100.00;97301.81;5039475;28;20061;-74
2023/06/19 01:58:41;;;;;;;4.03;2.50;;;19.30;99.90;;;18.68;100.00;97303.63;5039451;28;20041;-74
2023/06/19 02:01:10;;;;;;;6.05;2.28;;;19.20;99.90;;;18.62;100.00;97290.97;5037960;28;20049;-73
2023/06/19 02:03:38;;;;;;;4.25;2.50;;;19.10;99.90;;;18.70;100.00;97295.59;5038733;28;20160;-74
2023/06/19 02:06:05;;;;;;;3.63;2.40;;;19.10;99.90;;;18.55;100.00;97305.56;5039867;28;20052;-73
2023/06/19 02:08:32;;;;;;;3.83;2.60;;;19.10;99.90;;;18.65;100.00;97308.28;5039003;28;20099;-73
2023/06/19 02:10:59;;;;;;;2.72;2.03;;;19.10;99.90;;;18.53;100.00;97310.09;5040681;28;20509;-73
2023/06/19 02:13:26;;;;;;;6.25;2.30;;;19.00;99.90;;;18.51;100.00;97318.09;5040219;28;21143;-74
2023/06/19 02:15:53;;;;;;;2.83;1.92;;;19.00;99.90;;;18.51;100.00;97312.81;5040377;28;20532;-73
2023/06/19 02:18:20;;;;;;;3.60;1.80;;;19.00;99.90;;;18.53;100.00;97305.66;5042827;28;20048;-73
2023/06/19 02:20:47;;;;;;;3.03;2.30;;;19.10;99.90;;;18.49;100.00;97304.22;5038921;28;20053;-73
2023/06/19 02:23:14;;;;;;;3.78;2.35;;;19.10;99.90;;;18.47;100.00;97314.03;5042434;28;20136;-73
2023/06/19 02:25:42;;;;;;;3.42;2.33;;;19.10;99.90;;;18.42;100.00;97331.94;5040816;28;20129;-73
2023/06/19 02:28:09;;;;;;;3.22;2.17;;;19.10;99.90;;;18.46;100.00;97341.28;5041164;28;20182;-73
2023/06/19 02:30:36;;;;;;;3.40;1.98;;;19.10;99.90;;;18.38;100.00;97338.41;5041636;28;20135;-73
2023/06/19 02:33:03;;;;;;;2.67;1.83;;;19.10;99.90;;;18.37;100.00;97347.25;5039857;28;20045;-73
2023/06/19 02:35:30;;;;;;;3.50;1.88;;;19.00;99.90;;;18.36;100.00;97348.22;5039666;28;20114;-73
2023/06/19 02:37:57;;;;;;;6.10;2.22;;;19.00;99.90;;;18.24;100.00;97352.59;5041567;28;20053;-73
2023/06/19 02:40:25;;;;;;;3.13;2.03;;;18.90;99.90;;;18.30;100.00;97362.66;5045486;28;20044;-73
2023/06/19 02:42:52;;;;;;;3.88;2.08;;;18.90;99.90;;;18.29;100.00;97360.13;5041668;28;20053;-74
2023/06/19 02:45:19;;;;;;;3.25;2.47;;;18.90;99.90;;;18.27;100.00;97359.41;5039744;28;20055;-74
2023/06/19 02:47:47;;;;;;;4.22;1.77;;;19.00;99.90;;;18.27;100.00;97370.78;5036553;28;20056;-73
2023/06/19 02:50:14;;;;;;;3.25;1.77;;;19.00;99.90;;;18.31;100.00;97374.00;5037936;28;20127;-74
2023/06/19 02:52:41;;;;;;;4.13;2.05;;;19.00;99.90;;;18.25;100.00;97393.72;5039023;28;20049;-73
2023/06/19 02:55:08;;;;;;;4.68;2.20;;;18.90;99.90;;;18.22;100.00;97380.78;5037486;28;20045;-73
2023/06/19 02:57:35;;;;;;;3.22;2.13;;;19.00;99.90;;;18.21;100.00;97392.25;5037374;28;20057;-73
2023/06/19 03:00:05;;;;;;;3.60;2.15;;;19.00;99.90;;;18.21;100.00;97405.41;5038600;28;20052;-73
2023/06/19 03:02:33;;;;;;;3.63;1.98;;;19.00;99.90;;;18.15;100.00;97405.84;5024806;28;20051;-73
2023/06/19 03:05:01;;;;;;;4.32;2.35;;;18.90;99.90;;;18.15;100.00;97409.34;5038877;28;20063;-73
2023/06/19 03:07:28;;;;;;;3.17;2.28;;;19.00;99.90;;;18.02;100.00;97423.50;5040417;28;20049;-74
2023/06/19 03:09:55;;;;;;;3.67;2.30;;;18.90;99.90;;;17.96;100.00;97425.63;5052787;28;20140;-73
2023/06/19 03:12:22;;;;;;;3.70;2.50;;;18.80;99.90;;;17.84;100.00;97450.19;5037970;28;20057;-73
2023/06/19 03:14:49;;;;;;;5.45;2.67;;;18.70;99.90;;;17.79;100.00;97452.28;5041707;28;20103;-73
2023/06/19 03:17:16;;;;;;;3.78;2.80;;;18.70;99.90;;;17.78;100.00;97448.81;5042888;28;20079;-73
2023/06/19 03:19:43;;;;;;;6.75;3.05;;;18.70;99.90;;;17.68;100.00;97450.44;5043017;28;20124;-75
2023/06/19 03:22:10;;;;;;;6.03;2.72;;;18.60;99.90;;;17.63;100.00;97467.47;5041383;28;20143;-73
2023/06/19 03:24:37;;;;;;;5.32;2.50;;;18.50;99.90;;;17.58;100.00;97480.94;5042260;28;20072;-73
2023/06/19 03:27:05;;;;;;;4.88;2.78;;;18.40;99.90;;;17.60;100.00;97494.78;5043816;28;20167;-72
2023/06/19 03:29:32;;;;;;;3.55;2.75;;;18.40;99.90;;;17.49;100.00;97490.31;5040891;28;20127;-74
2023/06/19 03:31:59;;;;;;;4.63;2.35;;;18.30;99.90;;;17.46;100.00;97510.69;5039412;28;20480;-73
2023/06/19 03:34:26;;;;;;;4.60;2.95;;;18.30;99.90;;;17.54;100.00;97519.69;5042774;28;20454;-73
2023/06/19 03:36:53;;;;;;;4.65;2.63;;;18.20;99.90;;;17.53;100.00;97519.78;5042919;28;20107;-73
2023/06/19 03:39:20;;;;;;;5.93;2.95;;;18.20;99.90;;;17.56;100.00;97515.19;5040228;28;20585;-73
2023/06/19 03:41:48;;;;;;;5.93;2.70;;;18.30;99.90;;;17.55;100.00;97521.34;5043106;28;20056;-74
2023/06/19 03:44:15;;;;;;;3.50;2.88;;;18.30;99.90;;;17.48;100.00;97530.63;5039463;28;20072;-73
2023/06/19 03:46:42;;;;;;;3.08;2.47;;;18.30;99.90;;;17.42;100.00;97551.22;5041197;28;20742;-73
2023/06/19 03:49:09;;;;;;;4.22;2.85;;;18.20;99.90;;;17.45;100.00;97562.34;5043289;28;20052;-73
2023/06/19 03:51:36;;;;;;;4.05;2.78;;;18.20;99.90;;;17.47;100.00;97568.31;5027125;28;20132;-73
2023/06/19 03:54:03;;;;;;;3.42;2.90;;;18.10;99.90;;;17.48;100.00;97567.34;5044376;28;20050;-73
2023/06/19 03:56:30;;;;;;;5.15;2.85;;;18.20;99.90;;;17.41;100.00;97575.78;5042702;28;20506;-73
2023/06/19 03:58:58;;;;;;;3.88;2.75;;;18.20;99.90;;;17.46;100.00;97589.41;5042559;28;20049;-73
2023/06/19 04:01:25;;;;;;;5.05;3.17;;;18.20;99.90;;;17.46;100.00;97590.25;5040843;28;20132;-74
2023/06/19 04:03:52;;;;;;;5.15;3.30;;;18.20;99.90;;;17.52;100.00;97591.63;5038675;28;20071;-73
2023/06/19 04:06:19;;;;;;;4.40;3.35;;;18.20;99.90;;;17.52;100.00;97591.63;5039956;28;20068;-73
2023/06/19 04:08:46;;;;;;;4.97;2.80;;;18.30;99.90;;;17.60;100.00;97588.44;5041799;28;20045;-73
2023/06/19 04:11:13;;;;;;;5.65;3.20;;;18.30;99.90;;;17.64;100.00;97603.84;5041776;28;20465;-73
2023/06/19 04:13:41;;;;;;;6.40;3.40;;;18.40;99.90;;;17.62;100.00;97600.50;5037352;28;20041;-73
2023/06/19 04:16:08;;;;;;;4.85;3.53;;;18.40;99.90;;;17.71;100.00;97599.00;5040828;28;20060;-74
2023/06/19 04:18:35;;;;;;;7.10;3.45;;;18.30;99.90;;;17.64;100.00;97592.53;5036268;28;20518;-73
2023/06/19 04:21:02;;;;;;;5.03;3.00;;;18.30;99.90;;;17.67;100.00;97594.91;5038563;28;20056;-73
2023/06/19 04:23:29;;;;;;;4.32;3.33;;;18.20;99.90;;;17.69;100.00;97593.84;5039899;28;20040;-73
2023/06/19 04:25:56;;;;;;;4.38;3.65;;;18.20;99.90;;;17.66;100.00;97591.47;5037890;28;20076;-72
2023/06/19 04:28:23;;;;;;;4.47;3.67;;;18.30;99.90;;;17.64;100.00;97603.84;5038679;28;20056;-74
2023/06/19 04:30:50;;;;;;;5.72;3.53;;;18.30;99.90;;;17.75;100.00;97600.47;5040645;28;20057;-73
2023/06/19 04:33:20;;;;;;;6.18;3.33;;;18.40;99.90;;;17.79;100.00;97594.06;5040740;28;20598;-73
2023/06/19 04:35:48;;;;;;;5.75;3.78;;;18.40;99.90;;;17.80;100.00;97605.41;5037880;28;20051;-72
2023/06/19 04:38:15;;;;;;;5.45;3.33;;;18.40;99.90;;;17.86;100.00;97600.59;5041664;28;20505;-73
2023/06/19 04:40:43;;;;;;;6.05;3.30;;;18.50;99.90;;;17.93;100.00;97593.09;5040866;28;20049;-73
2023/06/19 04:43:10;;;;;;;4.85;3.40;;;18.50;99.90;;;17.88;100.00;97582.06;5039380;28;20046;-72
2023/06/19 04:45:38;;;;;;;4.43;3.47;;;18.50;99.90;;;18.04;100.00;97580.03;5037326;28;20088;-73
2023/06/19 04:48:05;;;;;;;3.95;3.30;;;18.60;99.90;;;17.98;100.00;97572.59;5040031;28;20049;-72
2023/06/19 04:50:32;;;;;;;5.35;3.33;;;18.70;99.90;;;17.92;100.00;97579.09;5037678;28;20068;-74
2023/06/19 04:52:59;;;;;;;5.75;3.20;;;18.70;99.90;;;18.02;100.00;97583.69;5036945;28;20044;-74
2023/06/19 04:55:26;;;;;;;4.38;3.72;;;18.60;99.90;;;17.89;100.00;97581.97;5032462;28;20041;-73
2023/06/19 04:57:54;;;;;;;7.13;3.80;;;18.60;99.90;;;17.86;100.00;97583.97;5039174;28;20652;-73
2023/06/19 05:00:23;;;;;;;6.30;3.55;;;18.60;99.90;;;17.90;100.00;97583.66;5040934;28;20099;-73
2023/06/19 05:02:51;;;;;;;4.47;3.72;;;18.60;99.90;;;17.98;100.00;97583.09;5057943;28;20037;-73
2023/06/19 05:05:18;;;;;;;7.07;3.65;;;18.70;99.90;;;18.01;100.00;97592.53;5044194;28;20481;-73
2023/06/19 05:07:49;;;;;;;7.05;4.00;;;18.70;99.90;;;18.13;100.00;97595.13;5045665;28;20562;-74
2023/06/19 05:10:16;;;;;;;5.28;3.92;;;18.80;99.90;;;18.18;100.00;97600.88;5045270;28;20522;-74
2023/06/19 05:12:43;;;;;;;5.50;3.72;;;18.80;99.90;;;18.22;100.00;97592.75;5041857;28;20680;-73
2023/06/19 05:15:13;;;;;;;4.95;3.75;;;18.80;99.90;;;18.25;100.00;97598.63;5044692;28;20049;-73
2023/06/19 05:17:40;;;;;;;8.27;4.25;;;18.70;99.90;;;18.42;100.00;97584.25;5042817;28;20128;-74
2023/06/19 05:20:08;;;;;;;5.50;4.13;;;18.80;99.90;;;18.37;100.00;97583.75;5039882;28;20042;-73
2023/06/19 05:22:36;;;;;;;7.75;4.03;;;18.80;99.90;;;18.37;100.00;97583.75;5034888;28;20130;-73
2023/06/19 05:25:03;;;;;;;5.00;3.97;;;18.80;99.90;;;18.32;100.00;97593.78;5033398;28;20444;-74
2023/06/19 05:27:30;;;;;;;7.15;4.38;;;18.90;99.90;;;18.38;100.00;97588.03;5038749;28;20064;-73
2023/06/19 05:29:57;;;;;;;8.02;5.03;;;18.80;99.90;;;18.40;100.00;97588.75;5029392;28;20520;-74
2023/06/19 05:32:24;;;;;;;5.90;4.43;;;18.80;99.90;;;18.42;100.00;97596.53;5027295;28;20167;-74
2023/06/19 05:34:51;;;;;;;7.57;5.07;;;18.80;99.90;;;18.46;100.00;97595.38;5030636;28;20045;-76
2023/06/19 05:37:19;;;;;;;6.35;4.95;;;18.70;99.90;;;18.63;100.00;97584.41;5045861;28;20040;-74
2023/06/19 05:39:46;;;;;;;7.38;4.68;;;18.80;99.90;;;18.84;100.00;97574.13;5037467;28;20165;-75
2023/06/19 05:42:14;;;;;;;5.47;4.22;;;19.00;99.90;;;18.86;100.00;97561.69;5038844;28;20597;-75
2023/06/19 05:44:41;;;;;;;6.25;4.57;;;19.10;99.90;;;19.06;100.00;97561.94;5043919;28;20123;-74
2023/06/19 05:47:08;;;;;;;6.90;4.30;;;19.20;99.90;;;19.14;100.00;97559.56;5039918;28;20061;-74
2023/06/19 05:49:35;;;;;;;5.70;3.80;;;19.40;99.90;;;19.22;100.00;97560.63;5043985;28;20092;-74
2023/06/19 05:52:02;;;;;;;8.10;4.75;;;19.60;99.90;;;19.06;100.00;97552.25;5042817;28;20045;-75
2023/06/19 05:54:29;;;;;;;7.88;4.65;;;19.60;99.90;;;19.06;100.00;97560.13;5043246;28;20057;-74
2023/06/19 05:56:56;;;;;;;9.20;4.78;;;19.50;99.90;;;19.14;100.00;97555.13;5042676;28;20057;-74
2023/06/19 05:59:23;;;;;;;6.45;5.07;;;19.30;99.90;;;19.09;100.00;97569.56;5038471;28;20616;-75
2023/06/19 06:01:52;;;;;;;5.75;4.38;;;19.30;99.90;;;19.06;100.00;97575.09;5041045;28;20045;-74
2023/06/19 06:04:21;;;;;;;6.85;4.18;;;19.50;99.90;;;19.19;100.00;97568.75;5042848;28;20574;-74
2023/06/19 06:06:49;;;;;;;7.18;4.65;;;19.60;99.90;;;19.31;100.00;97560.88;5040220;28;20059;-74
2023/06/19 06:09:16;;;;;;;5.40;4.30;;;19.60;99.90;;;19.41;100.00;97548.66;5042400;28;20060;-74
2023/06/19 06:11:43;;;;;;;9.05;4.65;;;19.80;99.90;;;19.69;100.00;97546.50;5044043;28;20122;-73
2023/06/19 06:14:11;;;;;;;7.90;4.60;;;20.00;99.90;;;19.64;100.00;97538.94;5041269;28;20045;-75
2023/06/19 06:16:39;;;;;;;8.30;5.07;;;20.10;99.90;;;19.38;100.00;97548.88;5041443;28;20123;-74
2023/06/19 06:19:06;;;;;;;7.28;4.30;;;20.10;99.90;;;19.44;100.00;97566.84;5038431;28;20152;-75
2023/06/19 06:21:34;;;;;;;5.45;4.22;;;20.10;99.90;;;19.60;100.00;97559.41;5043722;28;20049;-74
2023/06/19 06:24:02;;;;;;;7.60;4.80;;;20.20;99.90;;;19.41;100.00;97565.28;5042373;28;20521;-75
2023/06/19 06:26:29;;;;;;;8.75;4.90;;;20.00;99.90;;;19.85;100.00;97557.47;5041976;28;20076;-75
2023/06/19 06:28:56;;;;;;;6.80;4.45;;;20.10;99.90;;;20.02;100.00;97550.81;5041235;28;20552;-74
2023/06/19 06:31:23;;;;;;;6.40;4.45;;;20.00;99.90;;;19.88;100.00;97545.84;5038819;28;20046;-74
2023/06/19 06:33:50;;;;;;;9.38;4.57;;;20.10;99.90;;;19.73;100.00;97553.16;5039283;28;20437;-74
2023/06/19 06:36:18;;;;;;;6.85;4.72;;;20.20;99.90;;;19.78;100.00;97562.38;5044542;28;20088;-75
2023/06/19 06:39:04;;;;;;;6.25;4.65;;;20.10;99.90;;;19.78;100.00;97565.03;5043015;28;20124;-74
2023/06/19 06:41:31;;;;;;;7.57;4.50;;;20.00;99.90;;;19.97;100.00;97550.38;5041032;28;20151;-75
2023/06/19 06:43:58;;;;;;;6.82;4.53;;;20.20;99.90;;;20.05;100.00;97561.97;5040778;28;20045;-75
2023/06/19 06:46:26;;;;;;;6.00;3.95;;;20.50;99.90;;;20.06;100.00;97557.53;5040671;28;20064;-76
2023/06/19 06:48:53;;;;;;;5.50;3.92;;;20.40;99.90;;;20.34;100.00;97557.88;5045227;28;20142;-75
2023/06/19 06:51:22;;;;;;;6.00;4.28;;;20.30;99.90;;;20.03;100.00;97544.59;5047234;28;20110;-75
2023/06/19 06:53:50;;;;;;;8.85;4.50;;;20.30;99.90;;;20.07;100.00;97551.31;5030410;28;20520;-75
2023/06/19 06:56:17;;;;;;;7.57;4.78;;;20.50;99.90;;;19.93;100.00;97559.47;5044852;28;20127;-75
2023/06/19 06:58:46;;;;;;;5.38;4.43;;;20.40;99.90;;;19.87;100.00;97563.44;5044502;28;20745;-75
2023/06/19 07:01:13;;;;;;;4.93;4.00;;;20.40;99.90;;;20.01;100.00;97557.91;5037268;28;20589;-74
2023/06/19 07:03:41;;;;;;;8.98;4.30;;;20.30;99.90;;;20.11;100.00;97562.41;5043515;28;20045;-75
2023/06/19 07:06:08;;;;;;;7.45;4.57;;;20.20;99.90;;;20.12;100.00;97559.66;5046122;28;20049;-75
2023/06/19 07:08:35;;;;;;;8.52;4.32;;;20.20;99.90;;;20.20;100.00;97572.19;5044625;28;20052;-76
2023/06/19 07:11:03;;;;;;;8.73;4.20;;;20.50;99.90;;;20.46;100.00;97567.44;5045490;28;20581;-74
2023/06/19 07:13:30;;;;;;;6.97;4.45;;;20.80;99.90;;;20.52;100.00;97551.06;5043666;28;20045;-74
2023/06/19 07:15:58;;;;;;;5.80;4.07;;;20.80;99.90;;;20.55;100.00;97557.88;5043542;28;20045;-75
2023/06/19 07:18:25;;;;;;;6.18;3.90;;;20.70;99.90;;;20.78;100.00;97558.66;5044836;28;20103;-74
2023/06/19 07:20:54;;;;;;;5.07;3.60;;;20.90;99.90;;;20.80;100.00;97557.56;5045004;28;20103;-74
2023/06/19 07:23:21;;;;;;;6.10;3.90;;;20.90;99.90;;;21.01;100.00;97543.50;5046819;28;20057;-74
2023/06/19 07:25:48;;;;;;;7.43;4.53;;;20.70;99.90;;;20.85;100.00;97544.81;5044365;28;20496;-74
2023/06/19 07:28:15;;;;;;;5.72;4.25;;;20.80;99.90;;;20.76;100.00;97544.75;5043614;28;20058;-74
2023/06/19 07:30:44;;;;;;;5.45;3.67;;;20.70;99.90;;;20.63;100.00;97542.31;5044132;28;20056;-75
2023/06/19 07:33:11;;;;;;;5.43;3.97;;;20.80;99.90;;;21.10;100.00;97551.47;5046982;28;20510;-73
2023/06/19 07:35:38;;;;;;;6.45;3.58;;;20.90;99.90;;;21.14;100.00;97536.19;5047097;28;20051;-72
2023/06/19 07:38:05;;;;;;;6.68;4.30;;;21.20;99.90;;;21.48;100.00;97534.13;5046120;28;20048;-75
2023/06/19 07:40:32;;;;;;;11.15;4.72;;;21.60;99.90;;;21.83;100.00;97530.16;5042306;28;20056;-74
2023/06/19 07:42:59;;;;;;;6.55;3.72;;;21.90;99.90;;;21.57;100.00;97535.09;5038824;28;20167;-75
2023/06/19 07:45:26;;;;;;;9.48;4.15;;;21.90;99.90;;;21.90;100.00;97525.16;5047468;28;20048;-73
2023/06/19 07:47:56;;;;;;;5.78;4.43;;;21.70;99.90;;;21.30;100.00;97540.97;5045696;28;20052;-74
2023/06/19 07:50:23;;;;;;;7.90;3.72;;;21.60;99.90;;;21.68;100.00;97537.63;5042697;28;20148;-73
2023/06/19 07:52:53;;;;;;;10.40;4.10;;;21.80;99.90;;;21.57;100.00;97532.47;5037266;28;20108;-73
2023/06/19 07:55:20;;;;;;;4.85;3.25;;;21.80;99.90;;;21.91;100.00;97526.81;5042825;28;20045;-73
2023/06/19 07:57:48;;;;;;;4.60;3.47;;;22.10;99.90;;;21.92;100.00;97521.41;5043165;28;20064;-73
2023/06/19 08:00:15;;;;;;;3.90;3.10;;;22.30;99.90;;;21.93;100.00;97522.25;5041572;28;20556;-74
2023/06/19 08:02:43;;;;;;;6.65;3.20;;;22.40;99.90;;;21.79;100.00;97536.69;5044662;28;20103;-73
2023/06/19 08:05:11;;;;;;;6.15;2.90;;;22.30;99.90;;;22.17;100.00;97523.63;5047262;28;20219;-73
2023/06/19 08:07:38;;;;;;;5.40;2.47;;;22.10;99.90;;;22.55;100.00;97506.94;5039223;28;20063;-73
2023/06/19 08:10:06;;;;;;;6.13;2.70;;;22.40;99.90;;;22.35;100.00;97482.31;5042961;28;20044;-76
2023/06/19 08:12:42;;;;;;;4.63;2.30;;;22.50;99.90;;;22.78;100.00;97494.19;5041398;28;20049;-75
2023/06/19 08:15:10;;;;;;;3.97;2.63;;;23.00;99.90;;;22.29;100.00;97488.19;5042964;28;20048;-74
2023/06/19 08:17:37;;;;;;;5.55;2.30;;;23.00;99.90;;;22.34;100.00;97492.06;5045976;28;20130;-74
2023/06/19 08:20:07;;;;;;;4.28;2.53;;;22.80;99.90;;;22.32;100.00;97507.22;5027085;28;20551;-75
2023/06/19 08:22:34;;;;;;;5.32;2.78;;;22.70;99.90;;;22.64;100.00;97495.50;5046077;28;20448;-75
2023/06/19 08:25:03;;;;;;;7.50;3.05;;;22.70;99.90;;;22.45;100.00;97499.00;5043805;28;20522;-75
2023/06/19 08:27:30;;;;;;;5.63;2.20;;;22.70;99.90;;;23.04;100.00;97510.31;5043240;28;20055;-74
2023/06/19 08:29:57;;;;;;;4.78;2.35;;;23.10;99.90;;;23.17;100.00;97505.53;5043003;28;20145;-75
2023/06/19 08:32:24;;;;;;;3.30;2.05;;;23.20;99.90;;;23.33;100.00;97498.75;5045966;28;20571;-75
2023/06/19 08:34:52;;;;;;;3.38;2.30;;;23.10;99.90;;;23.29;100.00;97498.22;5040827;28;20053;-74
2023/06/19 08:37:19;;;;;;;3.75;1.80;;;23.10;99.90;;;23.11;100.00;97497.34;5045473;28;20513;-75
2023/06/19 08:39:46;;;;;;;7.30;2.25;;;23.10;99.90;;;23.25;100.00;97501.31;5043708;28;20183;-75
2023/06/19 08:42:13;;;;;;;5.15;2.30;;;23.20;99.90;;;23.06;100.00;97503.06;5042463;28;20060;-75
2023/06/19 08:44:40;;;;;;;4.65;1.95;;;23.40;99.90;;;23.41;100.00;97501.50;5042097;28;20469;-75
2023/06/19 08:47:07;;;;;;;5.13;1.90;;;23.60;99.90;;;23.97;100.00;97497.81;5041800;28;20049;-76
2023/06/19 08:49:35;;;;;;;5.80;2.08;;;23.90;99.90;;;24.33;100.00;97487.16;5042109;28;20049;-74
2023/06/19 08:52:04;;;;;;;5.85;2.20;;;24.10;99.90;;;24.22;100.00;97484.75;5041774;28;20453;-75
2023/06/19 08:54:31;;;;;;;5.63;1.80;;;24.40;99.90;;;24.79;100.00;97468.41;5029200;28;20052;-74
2023/06/19 08:57:03;;;;;;;3.38;1.58;;;24.70;99.90;;;24.00;100.00;97480.78;5041175;28;20049;-75
2023/06/19 08:59:31;;;;;;;10.25;2.67;;;24.30;99.90;;;24.00;100.00;97484.25;5043885;28;20049;-76
2023/06/19 09:01:59;;;;;;;3.70;1.90;;;24.30;99.90;;;24.56;100.00;97484.91;5037349;28;20064;-75
2023/06/19 09:04:27;;;;;;;3.53;2.20;;;24.70;99.90;;;24.54;100.00;97486.88;5039889;28;20135;-76
2023/06/19 09:07:00;;;;;;;5.03;2.08;;;24.70;99.90;;;24.31;100.00;97490.94;5024197;28;20107;-75
2023/06/19 09:09:28;;;;;;;6.68;1.80;;;24.70;99.90;;;24.35;100.00;97487.84;5039276;28;20119;-75
2023/06/19 09:12:07;;;;;;;6.45;1.90;;;24.70;99.90;;;24.72;100.00;97484.13;5038861;28;20406;-75
2023/06/19 09:14:45;;;;;;;3.25;1.50;;;25.10;99.90;;;25.00;100.00;97486.63;5041960;28;20584;-75
2023/06/19 09:17:19;;;;;;;7.13;2.05;;;25.50;99.90;;;24.65;100.00;97491.06;5042328;28;20156;-77
2023/06/19 09:19:53;;;;;;;2.45;1.42;;;25.30;99.90;;;24.53;100.00;97487.00;5024695;28;20076;-74
2023/06/19 09:22:22;;;;;;;2.22;1.10;;;25.10;99.90;;;25.77;100.00;97478.59;5039873;28;20048;-74
2023/06/19 09:24:49;;;;;;;4.13;1.95;;;25.80;99.90;;;25.59;100.00;97481.38;5040278;28;20098;-73
2023/06/19 09:27:19;;;;;;;5.20;2.03;;;26.70;99.90;;;25.81;100.00;97482.59;5040193;28;20049;-74
2023/06/19 09:29:48;;;;;;;2.50;1.33;;;;;;;26.46;100.00;97477.34;5039956;28;20049;-74
2023/06/19 09:32:28;;;;;;;4.60;1.70;;;26.90;99.90;;;25.66;100.00;97461.16;5037652;28;20102;-73
2023/06/19 09:34:58;;;;;;;2.60;1.27;;;27.10;99.90;;;26.03;100.00;97474.03;5043620;28;20140;-73
2023/06/19 09:37:30;;;;;;;2.53;1.27;;;26.20;99.90;;;26.59;100.00;97476.84;5044186;28;20049;-75
2023/06/19 09:40:13;;;;;;;4.28;1.55;;;26.80;99.90;;;25.76;100.00;97483.09;5040394;28;20042;-74
2023/06/19 09:42:42;;;;;;;2.78;1.27;;;26.50;99.90;;;26.08;100.00;97478.84;5043947;28;20046;-74
2023/06/19 09:45:14;;;;;;;3.10;1.10;;;26.00;99.90;;;26.69;100.00;97482.00;5039606;28;20441;-74
2023/06/19 09:47:47;;;;;;;3.88;1.38;;;25.90;99.90;;;27.02;100.00;97471.25;5043816;28;20482;-73
2023/06/19 09:50:17;;;;;;;4.28;1.20;;;26.40;99.90;;;26.40;100.00;97472.69;5026662;28;20048;-74
2023/06/19 09:52:45;;;;;;;3.08;1.30;;;26.80;99.90;;;26.85;100.00;97479.28;5026753;28;20132;-75
2023/06/19 09:55:13;;;;;;;2.28;1.20;;;26.50;99.90;;;26.23;100.00;97487.84;5038812;28;20045;-75
2023/06/19 09:57:42;;;;;;;2.70;1.30;;;26.00;99.90;;;25.81;100.00;97480.75;5038463;28;20052;-73
2023/06/19 10:00:12;;;;;;;3.15;1.30;;;26.00;99.90;;;26.03;100.00;97468.69;5037801;28;20599;-74
2023/06/19 10:02:42;;;;;;;2.58;1.42;;;25.90;99.90;;;26.12;100.00;97468.72;5042742;28;20052;-73
2023/06/19 10:05:12;;;;;;;2.30;1.25;;;25.70;99.90;;;25.88;100.00;97467.69;5023931;28;20045;-74
2023/06/19 10:07:46;;;;;;;5.47;1.48;;;25.70;99.90;;;26.77;100.00;97476.63;5055435;28;20053;-74
2023/06/19 10:10:28;;;;;;;2.38;1.40;;;26.00;99.90;;;26.37;100.00;97453.56;5040557;28;20441;-74
2023/06/19 10:13:12;;;;;;;3.88;1.45;;;26.80;99.90;;;27.54;100.00;97452.88;5039208;28;20057;-73
2023/06/19 10:15:44;;;;;;;5.20;1.50;;;27.50;99.90;;;28.40;100.00;97447.44;5044762;28;20060;-74
2023/06/19 10:18:18;;;;;;;2.75;1.23;;;27.90;99.90;;;27.52;100.00;97446.88;5041776;28;20111;-74